Bismil, Turkey
Current Conditions -  °F | °C
As of 3:20 PM on Wednesday 22 Oct 2014 (Local Time) from LTCC Reporting Station
Broken Clouds Broken Clouds  
Wind Chill: 68°   Ceiling: 10000
Heat Index: 68°   Visibility: 6mi
Dew Point: 50°   Wind: 5mph
Humidity: 52%   Direction: 60°ENE
Pressure: 30.12"   Gusts: NA
Location:  37.85°N, 40.67°E
Report Text: LTCC 221220Z 06004KT 020V090 9999 SCT040 BKN100 20/10 Q1020 NOSIG
Loading
Personal Weather Stations






























Interactive Weather Map
Tropical Storm Tracking
New forecast layout! Learn more

10-Day Weather Forecast

Advertisements
Track Severe Weather on mobile